createdAt,value
2017-08-16T00:00:20.272Z,23.46
2017-08-16T00:01:01.166Z,23.44
2017-08-16T00:01:42.056Z,23.44
2017-08-16T00:02:22.956Z,23.39
2017-08-16T00:03:03.849Z,23.4
2017-08-16T00:03:44.757Z,23.48
2017-08-16T00:04:25.644Z,23.37
2017-08-16T00:05:06.546Z,23.37
2017-08-16T00:05:47.441Z,23.44
2017-08-16T00:06:28.334Z,23.41
2017-08-16T00:07:09.234Z,23.41
2017-08-16T00:07:50.133Z,23.4
2017-08-16T00:08:31.038Z,23.32
2017-08-16T00:09:11.928Z,23.28
2017-08-16T00:09:52.854Z,23.23
2017-08-16T00:10:33.745Z,23.31
2017-08-16T00:11:14.635Z,23.34
2017-08-16T00:11:55.533Z,23.31
2017-08-16T00:12:36.416Z,23.23
2017-08-16T00:13:17.308Z,23.27
2017-08-16T00:13:58.193Z,23.25
2017-08-16T00:14:39.092Z,23.13
2017-08-16T00:15:19.989Z,23.06
2017-08-16T00:16:00.916Z,23.17
2017-08-16T00:16:41.809Z,23.1
2017-08-16T00:17:22.700Z,23.17
2017-08-16T00:18:03.589Z,23.12
2017-08-16T00:18:44.498Z,23.24
2017-08-16T00:19:25.380Z,23.25
2017-08-16T00:20:06.265Z,23.25
2017-08-16T00:20:47.170Z,23.27
2017-08-16T00:21:28.058Z,23.23
2017-08-16T00:22:08.939Z,23.32
2017-08-16T00:22:49.841Z,23.31
2017-08-16T00:23:30.738Z,23.25
2017-08-16T00:24:11.617Z,23.25
2017-08-16T00:24:52.506Z,23.32
2017-08-16T00:25:33.393Z,23.28
2017-08-16T00:26:14.297Z,23.21
2017-08-16T00:26:55.196Z,23.4
2017-08-16T00:27:36.111Z,23.36
2017-08-16T00:28:17.003Z,23.27
2017-08-16T00:28:57.902Z,23.27
2017-08-16T00:29:38.804Z,23.23
2017-08-16T00:30:19.691Z,23.37
2017-08-16T00:31:00.581Z,23.23
2017-08-16T00:31:41.473Z,23.32
2017-08-16T00:32:22.366Z,23.34
2017-08-16T00:33:03.282Z,23.4
2017-08-16T00:33:44.170Z,23.41
2017-08-16T00:34:25.088Z,23.43
2017-08-16T00:35:05.974Z,23.44
2017-08-16T00:35:46.866Z,23.51
2017-08-16T00:36:27.818Z,23.37
2017-08-16T00:37:08.713Z,23.4
2017-08-16T00:37:49.603Z,23.43
2017-08-16T00:38:30.494Z,23.41
2017-08-16T00:39:11.385Z,23.44
2017-08-16T00:39:52.284Z,23.4
2017-08-16T00:40:33.175Z,23.46
2017-08-16T00:41:14.071Z,23.43
2017-08-16T00:41:54.944Z,23.4
2017-08-16T00:42:35.844Z,23.43
2017-08-16T00:43:16.745Z,23.32
2017-08-16T00:43:57.621Z,23.34
2017-08-16T00:44:38.517Z,23.27
2017-08-16T00:45:19.408Z,23.32
2017-08-16T00:46:00.309Z,23.34
2017-08-16T00:46:41.219Z,23.25
2017-08-16T00:47:22.131Z,23.31
2017-08-16T00:48:03.043Z,23.25
2017-08-16T00:48:43.947Z,23.32
2017-08-16T00:49:24.836Z,23.25
2017-08-16T00:50:05.739Z,23.36
2017-08-16T00:50:46.622Z,23.32
2017-08-16T00:51:27.509Z,23.28
2017-08-16T00:52:08.413Z,23.28
2017-08-16T00:52:49.296Z,23.32
2017-08-16T00:53:30.186Z,23.27
2017-08-16T00:54:11.092Z,23.32
2017-08-16T00:54:51.978Z,23.28
2017-08-16T00:55:32.894Z,23.34
2017-08-16T00:56:13.792Z,23.31
2017-08-16T00:56:54.682Z,23.32
2017-08-16T00:57:35.588Z,23.36
2017-08-16T00:58:16.467Z,23.21
2017-08-16T00:58:57.381Z,23.34
2017-08-16T00:59:38.278Z,23.32
2017-08-16T01:00:19.173Z,23.28
2017-08-16T01:01:00.061Z,23.25
2017-08-16T01:01:40.943Z,23.21
2017-08-16T01:02:21.850Z,23.28
2017-08-16T01:03:02.758Z,23.24
2017-08-16T01:03:43.639Z,23.41
2017-08-16T01:04:24.538Z,23.43
2017-08-16T01:05:05.437Z,23.44
2017-08-16T01:05:46.315Z,23.4
2017-08-16T01:06:27.202Z,23.4
2017-08-16T01:07:08.110Z,23.43
2017-08-16T01:07:48.986Z,23.41
2017-08-16T01:08:29.920Z,23.36
2017-08-16T01:09:10.792Z,23.41
2017-08-16T01:09:51.704Z,23.41
2017-08-16T01:10:32.609Z,23.46
2017-08-16T01:11:13.509Z,23.43
2017-08-16T01:11:54.396Z,23.43
2017-08-16T01:12:35.284Z,23.41
2017-08-16T01:13:16.190Z,23.41
2017-08-16T01:13:57.089Z,23.46
2017-08-16T01:14:37.980Z,23.48
2017-08-16T01:15:33.419Z,23.47
2017-08-16T01:16:14.312Z,23.55
2017-08-16T01:16:55.210Z,23.5
2017-08-16T01:17:36.107Z,23.46
2017-08-16T01:18:16.993Z,23.54
2017-08-16T01:18:57.884Z,23.47
2017-08-16T01:19:38.784Z,23.48
2017-08-16T01:20:19.677Z,23.39
2017-08-16T01:21:00.591Z,23.39
2017-08-16T01:21:41.481Z,23.43
2017-08-16T01:22:22.393Z,23.31
2017-08-16T01:23:03.282Z,23.44
2017-08-16T01:23:44.171Z,23.39
2017-08-16T01:24:25.068Z,23.46
2017-08-16T01:25:05.978Z,23.44
2017-08-16T01:25:46.864Z,23.48
2017-08-16T01:26:27.773Z,23.41
2017-08-16T01:27:08.659Z,23.28
2017-08-16T01:27:49.545Z,23.36
2017-08-16T01:28:30.448Z,23.31
2017-08-16T01:29:11.342Z,23.31
2017-08-16T01:29:52.238Z,23.27
2017-08-16T01:30:33.135Z,23.24
2017-08-16T01:31:14.032Z,23.28
2017-08-16T01:31:54.937Z,23.23
2017-08-16T01:32:35.832Z,23.13
2017-08-16T01:33:16.723Z,23.13
2017-08-16T01:33:57.620Z,23.13
2017-08-16T01:34:38.517Z,23.08
2017-08-16T01:35:19.403Z,23.1
2017-08-16T01:36:00.349Z,23.15
2017-08-16T01:36:41.193Z,23.06
2017-08-16T01:37:22.088Z,23.06
2017-08-16T01:38:02.992Z,22.99
2017-08-16T01:38:43.880Z,23.1
2017-08-16T01:39:24.783Z,23.05
2017-08-16T01:40:05.697Z,22.99
2017-08-16T01:40:46.559Z,23.09
2017-08-16T01:41:27.459Z,23.06
2017-08-16T01:42:08.355Z,23.08
2017-08-16T01:42:49.245Z,23.08
2017-08-16T01:43:30.145Z,23.02
2017-08-16T01:44:11.039Z,22.98
2017-08-16T01:44:51.925Z,23
2017-08-16T01:45:32.812Z,23.1
2017-08-16T01:46:13.722Z,23.02
2017-08-16T01:46:54.600Z,23
2017-08-16T01:47:35.485Z,22.96
2017-08-16T01:48:16.388Z,22.99
2017-08-16T01:48:57.265Z,23.02
2017-08-16T01:49:38.166Z,22.99
2017-08-16T01:50:19.052Z,23
2017-08-16T01:50:59.929Z,22.98
2017-08-16T01:51:40.815Z,23.02
2017-08-16T01:52:21.718Z,22.94
2017-08-16T01:53:02.606Z,22.91
2017-08-16T01:53:43.486Z,22.98
2017-08-16T01:54:24.429Z,22.93
2017-08-16T01:55:05.353Z,22.84
2017-08-16T01:55:46.225Z,22.85
2017-08-16T01:56:27.111Z,22.78
2017-08-16T01:57:08.013Z,22.91
2017-08-16T01:57:48.911Z,22.83
2017-08-16T01:58:29.790Z,22.85
2017-08-16T01:59:10.677Z,22.9
2017-08-16T01:59:51.573Z,22.91
2017-08-16T02:00:32.472Z,23.03
2017-08-16T02:01:13.375Z,23.08
2017-08-16T02:01:54.268Z,22.99
2017-08-16T02:02:35.150Z,23.02
2017-08-16T02:03:16.046Z,22.99
2017-08-16T02:03:56.935Z,23.08
2017-08-16T02:04:37.803Z,23.05
2017-08-16T02:05:18.715Z,23.15
2017-08-16T02:05:59.602Z,23.12
2017-08-16T02:06:40.491Z,23.13
2017-08-16T02:07:21.396Z,23.02
2017-08-16T02:08:02.281Z,22.99
2017-08-16T02:08:43.163Z,22.99
2017-08-16T02:09:24.062Z,23.12
2017-08-16T02:10:04.952Z,23.13
2017-08-16T02:10:45.847Z,23.15
2017-08-16T02:11:26.739Z,23.03
2017-08-16T02:12:07.635Z,23.06
2017-08-16T02:12:48.530Z,23.09
2017-08-16T02:13:29.433Z,23.12
2017-08-16T02:14:10.314Z,23.09
2017-08-16T02:14:51.235Z,23.15
2017-08-16T02:15:32.120Z,23.27
2017-08-16T02:16:13.015Z,23.25
2017-08-16T02:16:53.908Z,23.18
2017-08-16T02:17:34.813Z,23.23
2017-08-16T02:18:15.694Z,23.25
2017-08-16T02:18:56.592Z,23.25
2017-08-16T02:19:37.492Z,23.24
2017-08-16T02:20:18.381Z,23.27
2017-08-16T02:20:59.284Z,23.23
2017-08-16T02:21:40.167Z,23.23
2017-08-16T02:22:21.062Z,23.12
2017-08-16T02:23:01.964Z,23.13
2017-08-16T02:23:42.870Z,23.13
2017-08-16T02:24:23.770Z,23.09
2017-08-16T02:25:04.661Z,23.21
2017-08-16T02:25:45.547Z,23.25
2017-08-16T02:26:26.446Z,23.24
2017-08-16T02:27:07.335Z,23.23
2017-08-16T02:27:48.213Z,23.25
2017-08-16T02:28:29.106Z,23.13
2017-08-16T02:29:10.017Z,23.1
2017-08-16T02:29:50.898Z,23.03
2017-08-16T02:30:31.797Z,23.06
2017-08-16T02:31:12.685Z,22.99
2017-08-16T02:31:53.572Z,22.99
2017-08-16T02:32:34.480Z,23.03
2017-08-16T02:33:15.360Z,22.98
2017-08-16T02:33:56.244Z,23.02
2017-08-16T02:34:37.132Z,22.96
2017-08-16T02:35:18.061Z,22.99
2017-08-16T02:35:58.948Z,22.9
2017-08-16T02:36:39.842Z,22.99
2017-08-16T02:37:20.735Z,22.84
2017-08-16T02:38:01.622Z,22.83
2017-08-16T02:38:42.540Z,22.87
2017-08-16T02:39:23.416Z,22.76
2017-08-16T02:40:04.300Z,22.73
2017-08-16T02:40:45.207Z,22.84
2017-08-16T02:41:26.088Z,22.85
2017-08-16T02:42:06.975Z,22.91
2017-08-16T02:42:47.884Z,22.83
2017-08-16T02:43:28.764Z,22.76
2017-08-16T02:44:09.651Z,22.65
2017-08-16T02:44:50.561Z,22.75
2017-08-16T02:45:31.443Z,22.8
2017-08-16T02:46:12.354Z,22.72
2017-08-16T02:46:53.256Z,22.7
2017-08-16T02:47:34.145Z,22.65
2017-08-16T02:48:15.056Z,22.68
2017-08-16T02:48:55.960Z,22.69
2017-08-16T02:49:36.869Z,22.69
2017-08-16T02:50:17.755Z,22.59
2017-08-16T02:50:58.664Z,22.63
2017-08-16T02:51:39.574Z,22.68
2017-08-16T02:52:20.458Z,22.63
2017-08-16T02:53:01.344Z,22.59
2017-08-16T02:53:42.250Z,22.55
2017-08-16T02:54:23.158Z,22.5
2017-08-16T02:55:04.042Z,22.41
2017-08-16T02:55:44.945Z,22.66
2017-08-16T02:56:25.842Z,22.51
2017-08-16T02:57:06.746Z,22.47
2017-08-16T02:57:47.652Z,22.47
2017-08-16T02:58:28.578Z,22.41
2017-08-16T02:59:09.477Z,22.62
2017-08-16T02:59:50.379Z,22.63
2017-08-16T03:00:31.267Z,22.44
2017-08-16T03:01:12.183Z,22.54
2017-08-16T03:01:53.066Z,22.7
2017-08-16T03:02:33.969Z,22.53
2017-08-16T03:03:14.874Z,22.48
2017-08-16T03:03:55.765Z,22.68
2017-08-16T03:04:36.667Z,22.75
2017-08-16T03:05:17.564Z,22.72
2017-08-16T03:05:58.464Z,22.55
2017-08-16T03:06:39.366Z,22.54
2017-08-16T03:07:20.285Z,22.5
2017-08-16T03:08:01.187Z,22.57
2017-08-16T03:08:42.078Z,22.6
2017-08-16T03:09:22.980Z,22.66
2017-08-16T03:10:03.878Z,22.65
2017-08-16T03:10:44.784Z,22.62
2017-08-16T03:11:25.672Z,22.53
2017-08-16T03:12:06.570Z,22.51
2017-08-16T03:12:47.468Z,22.41
2017-08-16T03:13:28.360Z,22.48
2017-08-16T03:14:09.299Z,22.35
2017-08-16T03:14:50.182Z,22.41
2017-08-16T03:15:31.088Z,22.23
2017-08-16T03:16:11.954Z,22.29
2017-08-16T03:16:52.840Z,22.25
2017-08-16T03:17:33.726Z,22.32
2017-08-16T03:18:14.618Z,22.32
2017-08-16T03:18:55.534Z,22.23
2017-08-16T03:19:36.422Z,22.32
2017-08-16T03:20:17.310Z,22.23
2017-08-16T03:20:58.200Z,22.23
2017-08-16T03:21:39.099Z,22.38
2017-08-16T03:22:20.010Z,22.29
2017-08-16T03:23:00.914Z,22.07
2017-08-16T03:23:41.809Z,22.14
2017-08-16T03:24:22.689Z,22.15
2017-08-16T03:25:03.580Z,22.13
2017-08-16T03:25:44.465Z,22.13
2017-08-16T03:26:25.383Z,22.26
2017-08-16T03:27:06.277Z,22.17
2017-08-16T03:27:47.176Z,22.17
2017-08-16T03:28:28.067Z,22.38
2017-08-16T03:29:08.957Z,22.29
2017-08-16T03:29:49.860Z,22.32
2017-08-16T03:30:30.765Z,22.18
2017-08-16T03:31:11.652Z,22.11
2017-08-16T03:31:52.545Z,21.99
2017-08-16T03:32:33.438Z,22.04
2017-08-16T03:33:14.329Z,22.13
2017-08-16T03:33:55.234Z,22.1
2017-08-16T03:34:36.125Z,22.14
2017-08-16T03:35:17.011Z,22.14
2017-08-16T03:35:57.924Z,21.92
2017-08-16T03:36:38.804Z,22.06
2017-08-16T03:37:19.688Z,21.93
2017-08-16T03:38:00.586Z,22.17
2017-08-16T03:38:41.487Z,22.08
2017-08-16T03:39:22.384Z,22.17
2017-08-16T03:40:03.278Z,22.07
2017-08-16T03:40:44.164Z,21.95
2017-08-16T03:41:25.070Z,22.11
2017-08-16T03:42:05.959Z,22.11
2017-08-16T03:42:46.852Z,22.2
2017-08-16T03:43:27.742Z,22.15
2017-08-16T03:44:08.630Z,22.13
2017-08-16T03:44:49.522Z,22.1
2017-08-16T03:45:30.417Z,22.04
2017-08-16T03:46:11.313Z,22.04
2017-08-16T03:46:52.202Z,22.1
2017-08-16T03:47:33.094Z,22.08
2017-08-16T03:48:13.992Z,21.99
2017-08-16T03:48:54.881Z,22.02
2017-08-16T03:49:35.770Z,22.04
2017-08-16T03:50:16.671Z,22.18
2017-08-16T03:50:57.560Z,22.26
2017-08-16T03:51:38.473Z,22.13
2017-08-16T03:52:19.342Z,22.11
2017-08-16T03:53:00.233Z,22.06
2017-08-16T03:53:41.124Z,22.11
2017-08-16T03:54:22.029Z,22.25
2017-08-16T03:55:02.911Z,22.3
2017-08-16T03:55:43.825Z,22.25
2017-08-16T03:56:24.712Z,22.29
2017-08-16T03:57:05.606Z,22.22
2017-08-16T03:57:46.498Z,22.1
2017-08-16T03:58:27.390Z,21.92
2017-08-16T03:59:08.277Z,21.92
2017-08-16T03:59:49.186Z,21.92
2017-08-16T04:00:30.076Z,22.04
2017-08-16T04:01:10.955Z,22
2017-08-16T04:01:51.855Z,22.11
2017-08-16T04:02:32.744Z,22.02
2017-08-16T04:03:13.628Z,22.06
2017-08-16T04:03:54.523Z,22.14
2017-08-16T04:04:35.419Z,22.18
2017-08-16T04:05:16.314Z,22.13
2017-08-16T04:05:57.217Z,21.96
2017-08-16T04:06:38.110Z,21.95
2017-08-16T04:07:19.008Z,22
2017-08-16T04:07:59.909Z,22.22
2017-08-16T04:08:40.788Z,22.06
2017-08-16T04:09:21.689Z,22.11
2017-08-16T04:10:02.584Z,22
2017-08-16T04:10:43.476Z,21.96
2017-08-16T04:11:24.372Z,21.99
2017-08-16T04:12:05.283Z,22.1
2017-08-16T04:12:46.145Z,22.04
2017-08-16T04:13:27.075Z,21.98
2017-08-16T04:14:07.949Z,22.17
2017-08-16T04:14:48.844Z,22.13
2017-08-16T04:15:29.735Z,22.13
2017-08-16T04:16:10.624Z,22.1
2017-08-16T04:16:51.500Z,22.13
2017-08-16T04:17:32.401Z,22.07
2017-08-16T04:18:13.289Z,22
2017-08-16T04:18:54.173Z,22.02
2017-08-16T04:19:35.087Z,22.22
2017-08-16T04:20:15.968Z,22.28
2017-08-16T04:20:56.875Z,22.3
2017-08-16T04:21:37.765Z,22.1
2017-08-16T04:22:18.645Z,22.26
2017-08-16T04:22:59.536Z,22.15
2017-08-16T04:23:40.446Z,22.06
2017-08-16T04:24:21.318Z,22.25
2017-08-16T04:25:02.200Z,21.99
2017-08-16T04:25:43.092Z,21.96
2017-08-16T04:26:23.986Z,21.98
2017-08-16T04:27:04.877Z,22.04
2017-08-16T04:27:45.782Z,21.98
2017-08-16T04:28:26.712Z,21.95
2017-08-16T04:29:07.603Z,21.95
2017-08-16T04:29:48.483Z,21.98
2017-08-16T04:30:29.379Z,22.15
2017-08-16T04:31:10.308Z,22.06
2017-08-16T04:31:51.170Z,21.95
2017-08-16T04:32:32.062Z,22.04
2017-08-16T04:33:12.962Z,21.96
2017-08-16T04:33:53.849Z,21.99
2017-08-16T04:34:34.745Z,21.88
2017-08-16T04:35:15.638Z,21.83
2017-08-16T04:35:56.526Z,21.91
2017-08-16T04:36:37.439Z,21.88
2017-08-16T04:37:18.328Z,21.85
2017-08-16T04:37:59.229Z,21.75
2017-08-16T04:38:40.132Z,21.91
2017-08-16T04:39:21.013Z,21.75
2017-08-16T04:40:01.904Z,21.96
2017-08-16T04:40:42.805Z,21.99
2017-08-16T04:41:23.688Z,22.11
2017-08-16T04:42:04.579Z,22.11
2017-08-16T04:42:45.462Z,22.22
2017-08-16T04:43:26.357Z,22.08
2017-08-16T04:44:07.229Z,22
2017-08-16T04:44:48.128Z,21.72
2017-08-16T04:45:29.021Z,21.7
2017-08-16T04:46:09.911Z,21.72
2017-08-16T04:46:51.797Z,21.62
2017-08-16T04:47:32.694Z,21.85
2017-08-16T04:48:13.595Z,21.79
2017-08-16T04:48:54.469Z,21.85
2017-08-16T04:49:35.363Z,21.85
2017-08-16T04:50:16.256Z,21.66
2017-08-16T04:50:57.132Z,21.7
2017-08-16T04:52:30.401Z,21.55
2017-08-16T04:53:11.286Z,21.57
2017-08-16T04:53:52.188Z,21.43
2017-08-16T04:54:33.079Z,21.52
2017-08-16T04:55:13.959Z,21.5
2017-08-16T04:55:54.849Z,21.48
2017-08-16T04:56:35.802Z,21.6
2017-08-16T04:57:16.622Z,21.48
2017-08-16T04:57:57.509Z,21.62
2017-08-16T04:58:38.411Z,21.55
2017-08-16T04:59:19.300Z,21.45
2017-08-16T05:00:00.185Z,21.45
2017-08-16T05:00:41.070Z,21.55
2017-08-16T05:01:22.002Z,21.51
2017-08-16T05:02:02.991Z,21.61
2017-08-16T05:02:43.855Z,21.58
2017-08-16T05:03:24.732Z,21.52
2017-08-16T05:04:05.616Z,21.61
2017-08-16T05:04:46.481Z,21.58
2017-08-16T05:05:27.392Z,21.57
2017-08-16T05:06:08.282Z,21.79
2017-08-16T05:06:49.150Z,21.6
2017-08-16T05:07:30.027Z,21.69
2017-08-16T05:08:10.925Z,21.61
2017-08-16T05:08:51.877Z,21.61
2017-08-16T05:09:32.772Z,21.62
2017-08-16T05:10:13.647Z,21.54
2017-08-16T05:10:54.555Z,21.43
2017-08-16T05:11:35.467Z,21.39
2017-08-16T05:12:16.333Z,21.43
2017-08-16T05:12:57.219Z,21.45
2017-08-16T05:13:38.163Z,21.54
2017-08-16T05:14:19.058Z,21.57
2017-08-16T05:14:59.995Z,21.72
2017-08-16T05:15:40.811Z,21.62
2017-08-16T05:16:21.699Z,21.58
2017-08-16T05:17:02.603Z,21.66
2017-08-16T05:17:43.485Z,21.7
2017-08-16T05:18:24.373Z,21.82
2017-08-16T05:19:05.261Z,21.62
2017-08-16T05:19:46.150Z,21.54
2017-08-16T05:20:27.044Z,21.7
2017-08-16T05:21:08.019Z,21.75
2017-08-16T05:21:48.920Z,21.8
2017-08-16T05:22:29.852Z,21.77
2017-08-16T05:23:10.748Z,21.75
2017-08-16T05:23:51.641Z,21.76
2017-08-16T05:24:32.534Z,21.7
2017-08-16T05:25:13.428Z,21.83
2017-08-16T05:25:54.323Z,21.83
2017-08-16T05:26:35.212Z,21.95
2017-08-16T05:27:16.105Z,21.7
2017-08-16T05:27:57.000Z,21.6
2017-08-16T05:28:37.908Z,21.58
2017-08-16T05:29:18.801Z,21.62
2017-08-16T05:29:59.682Z,21.55
2017-08-16T05:30:40.571Z,21.82
2017-08-16T05:31:21.474Z,21.95
2017-08-16T05:32:02.333Z,22.02
2017-08-16T05:32:43.215Z,21.93
2017-08-16T05:33:24.107Z,21.72
2017-08-16T05:34:05.005Z,21.83
2017-08-16T05:34:45.863Z,21.51
2017-08-16T05:35:26.762Z,21.5
2017-08-16T05:36:07.683Z,21.92
2017-08-16T05:36:48.563Z,21.73
2017-08-16T05:37:29.467Z,21.64
2017-08-16T05:38:10.349Z,21.69
2017-08-16T05:38:51.236Z,21.72
2017-08-16T05:39:32.127Z,21.82
2017-08-16T05:40:13.027Z,21.61
2017-08-16T05:40:53.913Z,21.52
2017-08-16T05:41:34.810Z,21.61
2017-08-16T05:42:15.726Z,21.72
2017-08-16T05:42:56.621Z,21.77
2017-08-16T05:43:37.519Z,21.7
2017-08-16T05:44:18.402Z,21.76
2017-08-16T05:44:59.296Z,21.93
2017-08-16T05:45:40.184Z,21.93
2017-08-16T05:46:21.079Z,21.88
2017-08-16T05:47:01.986Z,21.73
2017-08-16T05:47:42.884Z,21.61
2017-08-16T05:48:23.762Z,21.54
2017-08-16T05:49:04.661Z,21.93
2017-08-16T05:49:45.551Z,21.79
2017-08-16T05:50:26.449Z,21.69
2017-08-16T05:51:07.353Z,21.58
2017-08-16T05:51:48.236Z,21.57
2017-08-16T05:52:29.136Z,21.58
2017-08-16T05:53:10.045Z,21.42
2017-08-16T05:53:50.928Z,21.42
2017-08-16T05:54:31.829Z,21.46
2017-08-16T05:55:12.721Z,21.61
2017-08-16T05:55:53.610Z,21.67
2017-08-16T05:56:34.502Z,21.55
2017-08-16T05:57:15.401Z,21.82
2017-08-16T05:57:56.307Z,21.85
2017-08-16T05:58:37.176Z,21.75
2017-08-16T05:59:18.068Z,21.66
2017-08-16T05:59:58.964Z,21.72
2017-08-16T06:00:39.855Z,21.77
2017-08-16T06:01:20.741Z,21.66
2017-08-16T06:02:01.636Z,21.6
2017-08-16T06:02:42.529Z,21.4
2017-08-16T06:03:23.408Z,21.25
2017-08-16T06:04:04.330Z,21.36
2017-08-16T06:04:45.225Z,21.33
2017-08-16T06:05:26.133Z,21.11
2017-08-16T06:06:07.031Z,21.05
2017-08-16T06:06:47.929Z,21.11
2017-08-16T06:07:28.819Z,21.18
2017-08-16T06:08:09.696Z,21.09
2017-08-16T06:08:50.583Z,21.21
2017-08-16T06:09:31.466Z,21.09
2017-08-16T06:10:12.360Z,21.2
2017-08-16T06:10:53.254Z,21.15
2017-08-16T06:11:34.149Z,21.18
2017-08-16T06:12:15.050Z,21.24
2017-08-16T06:12:55.938Z,21.12
2017-08-16T06:13:36.864Z,21.12
2017-08-16T06:14:17.744Z,21.07
2017-08-16T06:14:58.635Z,21.17
2017-08-16T06:15:39.533Z,21.21
2017-08-16T06:16:20.428Z,21.07
2017-08-16T06:17:01.331Z,21.12
2017-08-16T06:17:42.222Z,21.02
2017-08-16T06:18:23.116Z,21.02
2017-08-16T06:19:04.005Z,21.12
2017-08-16T06:19:44.911Z,20.99
2017-08-16T06:20:25.810Z,21.15
2017-08-16T06:21:06.674Z,21.14
2017-08-16T06:21:47.561Z,21.27
2017-08-16T06:22:28.448Z,21.2
2017-08-16T06:23:09.340Z,21.14
2017-08-16T06:23:50.235Z,21.18
2017-08-16T06:24:31.121Z,21.14
2017-08-16T06:25:12.002Z,21.22
2017-08-16T06:25:52.896Z,21.27
2017-08-16T06:26:33.787Z,21.25
2017-08-16T06:27:14.680Z,21.32
2017-08-16T06:27:55.570Z,21.17
2017-08-16T06:28:36.461Z,21.15
2017-08-16T06:29:17.353Z,21.2
2017-08-16T06:29:58.250Z,21.07
2017-08-16T06:30:39.138Z,21.07
2017-08-16T06:31:20.031Z,21.11
2017-08-16T06:32:00.918Z,21.02
2017-08-16T06:32:41.814Z,20.93
2017-08-16T06:33:22.692Z,21.06
2017-08-16T06:34:03.592Z,21.03
2017-08-16T06:34:44.500Z,21.12
2017-08-16T06:35:25.389Z,21.22
2017-08-16T06:36:06.284Z,21.02
2017-08-16T06:36:47.174Z,21.02
2017-08-16T06:37:28.064Z,21.11
2017-08-16T06:38:08.989Z,21.21
2017-08-16T06:38:49.877Z,21.09
2017-08-16T06:39:30.774Z,21.15
2017-08-16T06:40:11.658Z,21.11
2017-08-16T06:40:52.534Z,20.97
2017-08-16T06:41:33.419Z,21.06
2017-08-16T06:42:14.328Z,21.29
2017-08-16T06:42:55.219Z,21.18
2017-08-16T06:43:36.114Z,21.21
2017-08-16T06:44:17.007Z,21.12
2017-08-16T06:44:57.882Z,21.09
2017-08-16T06:45:38.779Z,21.02
2017-08-16T06:46:19.670Z,21.07
2017-08-16T06:47:00.582Z,21.06
2017-08-16T06:47:41.513Z,21
2017-08-16T06:48:22.392Z,21.17
2017-08-16T06:49:03.283Z,21.15
2017-08-16T06:49:44.216Z,21.02
2017-08-16T06:50:25.115Z,20.97
2017-08-16T06:51:06.006Z,21.02
2017-08-16T06:51:46.900Z,21.03
2017-08-16T06:52:27.800Z,21
2017-08-16T06:53:08.739Z,21.02
2017-08-16T06:53:49.628Z,21
2017-08-16T06:54:30.518Z,20.87
2017-08-16T06:55:11.418Z,20.9
2017-08-16T06:55:52.308Z,20.77
2017-08-16T06:56:33.201Z,20.81
2017-08-16T06:57:14.094Z,20.84
2017-08-16T06:57:55.002Z,20.92
2017-08-16T06:58:35.913Z,20.85
2017-08-16T06:59:16.811Z,20.85
2017-08-16T06:59:57.705Z,20.87
2017-08-16T07:00:38.616Z,20.75
2017-08-16T07:01:19.497Z,20.7
2017-08-16T07:02:00.399Z,20.88
2017-08-16T07:02:41.296Z,21.02
2017-08-16T07:03:22.170Z,20.87
2017-08-16T07:04:03.053Z,20.96
2017-08-16T07:04:43.979Z,20.99
2017-08-16T07:05:24.854Z,20.88
2017-08-16T07:06:05.753Z,20.87
2017-08-16T07:06:46.648Z,20.88
2017-08-16T07:07:27.528Z,20.82
2017-08-16T07:08:08.422Z,20.88
2017-08-16T07:08:49.331Z,20.99
2017-08-16T07:09:30.202Z,21.03
2017-08-16T07:10:11.105Z,21.02
2017-08-16T07:10:51.988Z,21.02
2017-08-16T07:11:32.876Z,20.93
2017-08-16T07:12:13.768Z,20.96
2017-08-16T07:12:54.667Z,21.05
2017-08-16T07:13:35.555Z,21.11
2017-08-16T07:14:16.455Z,21.14
2017-08-16T07:16:10.121Z,21.12
2017-08-16T07:16:51.018Z,21.17
2017-08-16T07:17:31.900Z,21.15
2017-08-16T07:18:12.793Z,21.22
2017-08-16T07:18:53.681Z,21.14
2017-08-16T07:19:34.611Z,21.14
2017-08-16T07:20:15.519Z,21.24
2017-08-16T07:20:56.392Z,21.21
2017-08-16T07:21:37.307Z,21.25
2017-08-16T07:22:18.198Z,21.29
2017-08-16T07:22:59.078Z,21.17
2017-08-16T07:23:39.962Z,21
2017-08-16T07:24:20.840Z,20.95
2017-08-16T07:25:01.734Z,20.92
2017-08-16T07:25:42.622Z,20.97
2017-08-16T07:26:23.515Z,20.72
2017-08-16T07:27:04.407Z,20.75
2017-08-16T07:27:45.289Z,20.74
2017-08-16T07:28:26.194Z,20.74
2017-08-16T07:29:07.077Z,20.92
2017-08-16T07:29:47.962Z,20.9
2017-08-16T07:30:28.847Z,20.74
2017-08-16T07:31:09.901Z,20.58
2017-08-16T07:31:50.823Z,20.59
2017-08-16T07:32:31.713Z,20.55
2017-08-16T07:33:12.617Z,20.6
2017-08-16T07:33:53.496Z,20.55
2017-08-16T07:34:34.378Z,20.6
2017-08-16T07:35:15.269Z,20.55
2017-08-16T07:35:56.158Z,20.51
2017-08-16T07:36:37.057Z,20.63
2017-08-16T07:37:17.941Z,20.65
2017-08-16T07:37:58.832Z,20.62
2017-08-16T07:38:39.726Z,20.69
2017-08-16T07:39:20.616Z,20.6
2017-08-16T07:40:01.503Z,20.58
2017-08-16T07:40:42.394Z,20.74
2017-08-16T07:41:23.290Z,20.65
2017-08-16T07:42:04.190Z,20.56
2017-08-16T07:42:45.062Z,20.62
2017-08-16T07:43:25.948Z,20.72
2017-08-16T07:44:06.858Z,20.67
2017-08-16T07:44:47.739Z,20.85
2017-08-16T07:45:28.620Z,20.82
2017-08-16T07:46:09.509Z,20.66
2017-08-16T07:46:50.401Z,20.58
2017-08-16T07:47:31.310Z,20.56
2017-08-16T07:48:12.202Z,20.51
2017-08-16T07:48:53.087Z,20.44
2017-08-16T07:49:34.032Z,20.52
2017-08-16T07:50:14.924Z,20.51
2017-08-16T07:50:55.820Z,20.58
2017-08-16T07:51:36.721Z,20.75
2017-08-16T07:52:17.603Z,20.88
2017-08-16T07:52:58.493Z,20.99
2017-08-16T07:53:39.395Z,21
2017-08-16T07:54:20.284Z,20.93
2017-08-16T07:55:01.189Z,20.78
2017-08-16T07:55:42.132Z,21.02
2017-08-16T07:56:23.043Z,20.99
2017-08-16T07:57:03.900Z,21.02
2017-08-16T07:57:44.797Z,21.02
2017-08-16T07:58:25.690Z,20.99
2017-08-16T07:59:06.580Z,20.92
2017-08-16T07:59:47.472Z,20.84
2017-08-16T08:00:28.366Z,21.02
2017-08-16T08:01:09.264Z,21.11
2017-08-16T08:01:50.168Z,21.12
2017-08-16T08:02:31.062Z,21.02
2017-08-16T08:03:11.957Z,21.12
2017-08-16T08:03:52.851Z,21.15
2017-08-16T08:04:33.752Z,21.12
2017-08-16T08:05:14.648Z,21.18
2017-08-16T08:05:55.545Z,21.17
2017-08-16T08:06:36.429Z,21.22
2017-08-16T08:07:17.322Z,21
2017-08-16T08:07:58.221Z,21.09
2017-08-16T08:08:39.102Z,21.09
2017-08-16T08:09:19.989Z,21.09
2017-08-16T08:10:00.876Z,21.09
2017-08-16T08:10:41.759Z,21.14
2017-08-16T08:11:22.663Z,21.18
2017-08-16T08:12:03.582Z,21.14
2017-08-16T08:12:44.487Z,21.06
2017-08-16T08:13:25.409Z,20.93
2017-08-16T08:14:06.316Z,20.92
2017-08-16T08:14:47.202Z,20.8
2017-08-16T08:15:28.083Z,20.8
2017-08-16T08:16:08.979Z,20.97
2017-08-16T08:16:49.864Z,21
2017-08-16T08:17:30.753Z,20.96
2017-08-16T08:18:11.636Z,20.88
2017-08-16T08:18:52.538Z,20.66
2017-08-16T08:19:33.426Z,20.69
2017-08-16T08:20:14.340Z,20.52
2017-08-16T08:20:55.213Z,20.51
2017-08-16T08:21:36.094Z,20.63
2017-08-16T08:22:16.977Z,20.31
2017-08-16T08:22:57.864Z,20.03
2017-08-16T08:23:38.776Z,20.19
2017-08-16T08:24:19.662Z,20.31
2017-08-16T08:25:00.564Z,20.18
2017-08-16T08:25:41.448Z,20.07
2017-08-16T08:26:22.311Z,20.1
2017-08-16T08:27:03.189Z,20.03
2017-08-16T08:27:44.103Z,19.96
2017-08-16T08:28:24.982Z,19.99
2017-08-16T08:29:05.873Z,20.04
2017-08-16T08:29:46.776Z,19.91
2017-08-16T08:30:27.642Z,19.91
2017-08-16T08:31:08.526Z,19.85
2017-08-16T08:31:49.427Z,19.79
2017-08-16T08:32:30.317Z,19.91
2017-08-16T08:33:11.192Z,19.82
2017-08-16T08:33:52.070Z,19.81
2017-08-16T08:34:32.963Z,19.79
2017-08-16T08:35:13.891Z,19.7
2017-08-16T08:35:54.777Z,19.84
2017-08-16T08:36:35.689Z,19.88
2017-08-16T08:37:16.570Z,19.79
2017-08-16T08:37:57.472Z,19.66
2017-08-16T08:38:38.360Z,19.85
2017-08-16T08:39:19.230Z,19.76
2017-08-16T08:40:00.107Z,19.66
2017-08-16T08:40:41.001Z,19.74
2017-08-16T08:41:21.892Z,19.7
2017-08-16T08:42:02.775Z,19.7
2017-08-16T08:42:43.662Z,19.71
2017-08-16T08:43:24.550Z,19.67
2017-08-16T08:44:05.444Z,19.67
2017-08-16T08:44:46.310Z,19.73
2017-08-16T08:45:27.223Z,19.73
2017-08-16T08:46:08.115Z,19.73
2017-08-16T08:46:48.985Z,19.69
2017-08-16T08:47:29.885Z,19.69
2017-08-16T08:48:10.776Z,19.56
2017-08-16T08:48:51.655Z,19.73
2017-08-16T08:49:32.558Z,19.7
2017-08-16T08:50:13.439Z,19.71
2017-08-16T08:50:54.318Z,19.66
2017-08-16T08:51:35.197Z,19.63